Time;durP1;ratioP1;P1;durP2;ratioP2;P2;SDS_P1;SDS_P2;PMS_P1;PMS_P2;Temp;Humidity;BMP_temperature;BMP_pressure;BME280_temperature;BME280_humidity;BME280_pressure;Samples;Min_cycle;Max_cycle;Signal;HPM_P1;HPM_P2
2023/05/20 00:00:48;;;;;;;;;;;;;;;8.31;95.46;103149.88;4993498;28;19917;-67
2023/05/20 00:03:13;;;;;;;;;;;;;;;8.33;96.07;103149.78;4993050;28;20276;-65
2023/05/20 00:05:39;;;;;;;;;;;;;;;8.33;95.10;103150.69;4993217;28;19914;-65
2023/05/20 00:08:08;;;;;;;;;;;;;;;8.34;95.39;103154.19;4992929;28;19914;-64
2023/05/20 00:10:33;;;;;;;;;;;;;;;8.32;95.23;103153.41;4993159;28;20377;-65
2023/05/20 00:12:58;;;;;;;;;;;;;;;8.28;94.01;103149.22;4993119;28;19945;-66
2023/05/20 00:15:24;;;;;;;;;;;;;;;8.26;93.76;103151.97;4993053;28;20115;-65
2023/05/20 00:17:49;;;;;;;;;;;;;;;8.22;94.06;103161.06;4993110;28;20000;-65
2023/05/20 00:20:14;;;;;;;;;;;;;;;8.21;93.61;103163.78;4992867;28;19956;-66
2023/05/20 00:22:40;;;;;;;;;;;;;;;8.18;94.54;103162.19;4992823;28;19957;-66
2023/05/20 00:25:05;;;;;;;;;;;;;;;8.16;94.18;103156.09;4992554;28;19968;-65
2023/05/20 00:27:31;;;;;;;;;;;;;;;8.12;93.86;103159.88;4993034;28;20388;-66
2023/05/20 00:29:56;;;;;;;;;;;;;;;8.10;94.00;103152.97;4993164;28;19940;-67
2023/05/20 00:32:21;;;;;;;;;;;;;;;8.05;94.42;103163.81;4992890;28;19914;-66
2023/05/20 00:34:57;;;;;;;;;;;;;;;8.02;94.11;103164.00;4992792;28;19918;-66
2023/05/20 00:37:22;;;;;;;;;;;;;;;7.99;94.63;103164.16;4992666;28;20251;-65
2023/05/20 00:39:47;;;;;;;;;;;;;;;7.97;95.09;103155.44;4994124;28;19914;-65
2023/05/20 00:42:20;;;;;;;;;;;;;;;7.96;95.42;103169.66;4996829;28;20417;-66
2023/05/20 00:44:47;;;;;;;;;;;;;;;7.95;95.07;103165.28;4996578;28;19972;-65
2023/05/20 00:47:22;;;;;;;;;;;;;;;7.94;95.42;103156.47;4996487;28;20413;-65
2023/05/20 00:49:48;;;;;;;;;;;;;;;7.95;95.81;103167.94;4996483;28;19964;-65
2023/05/20 00:52:14;;;;;;;;;;;;;;;7.95;94.44;103162.63;4996354;28;20397;-65
2023/05/20 00:54:40;;;;;;;;;;;;;;;7.93;95.74;103165.38;4996570;28;19921;-65
2023/05/20 00:57:05;;;;;;;;;;;;;;;7.91;96.17;103166.41;4996544;28;19975;-65
2023/05/20 00:59:31;;;;;;;;;;;;;;;7.90;96.24;103164.69;4996507;28;19914;-66
2023/05/20 01:01:57;;;;;;;;;;;;;;;7.90;96.53;103164.69;4996353;28;19940;-65
2023/05/20 01:04:23;;;;;;;;;;;;;;;7.89;95.90;103169.16;4996370;28;19949;-65
2023/05/20 01:06:48;;;;;;;;;;;;;;;7.89;96.60;103168.28;4995435;28;19950;-66
2023/05/20 01:09:14;;;;;;;;;;;;;;;7.87;97.33;103171.03;4996642;28;19921;-65
2023/05/20 01:11:47;;;;;;;;;;;;;;;7.87;97.40;103172.84;4996945;28;19921;-64
2023/05/20 01:14:15;;;;;;;;;;;;;;;7.88;97.07;103174.53;4996552;28;19921;-65
2023/05/20 01:16:46;;;;;;;;;;;;;;;7.89;97.63;103173.59;4996635;28;19920;-66
2023/05/20 01:19:34;;;;;;;;;;;;;;;7.88;97.31;103175.41;4996169;28;20425;-64
2023/05/20 01:22:02;;;;;;;;;;;;;;;7.91;97.32;103184.97;4996252;28;19917;-66
2023/05/20 01:24:27;;;;;;;;;;;;;;;7.90;98.01;103175.31;4995836;28;20373;-65
2023/05/20 01:26:53;;;;;;;;;;;;;;;7.90;96.80;103186.78;4995700;28;19961;-65
2023/05/20 01:29:18;;;;;;;;;;;;;;;7.91;97.06;103187.63;4995768;28;19956;-64
2023/05/20 01:31:45;;;;;;;;;;;;;;;7.92;97.16;103189.34;4995799;28;19944;-66
2023/05/20 01:34:11;;;;;;;;;;;;;;;7.91;97.55;103182.31;4996150;28;19953;-65
2023/05/20 01:36:37;;;;;;;;;;;;;;;7.91;97.59;103187.63;4995653;28;20374;-64
2023/05/20 01:39:05;;;;;;;;;;;;;;;7.91;98.53;103185.84;4995642;28;20374;-65
2023/05/20 01:41:30;;;;;;;;;;;;;;;7.91;98.63;103172.56;4995676;28;19921;-64
2023/05/20 01:43:56;;;;;;;;;;;;;;;7.93;98.88;103185.75;4995298;28;20281;-65
2023/05/20 01:46:21;;;;;;;;;;;;;;;7.94;98.95;103182.16;4995732;28;19917;-67
2023/05/20 01:48:46;;;;;;;;;;;;;;;7.97;97.91;103187.28;4994363;28;19925;-65
2023/05/20 01:51:12;;;;;;;;;;;;;;;7.99;98.24;103190.69;4994783;28;19980;-65
2023/05/20 01:53:37;;;;;;;;;;;;;;;8.02;98.62;103186.06;4995402;28;19914;-65
2023/05/20 01:56:04;;;;;;;;;;;;;;;8.04;98.69;103189.50;4995457;28;19922;-65
2023/05/20 01:58:29;;;;;;;;;;;;;;;8.08;97.73;103196.34;4995355;28;20270;-64
2023/05/20 02:00:54;;;;;;;;;;;;;;;8.13;98.98;103204.06;4995677;28;20349;-65
2023/05/20 02:03:20;;;;;;;;;;;;;;;8.16;98.99;103203.88;4996243;28;20004;-66
2023/05/20 02:05:45;;;;;;;;;;;;;;;8.20;98.88;103200.09;4994511;28;20388;-66
2023/05/20 02:08:10;;;;;;;;;;;;;;;8.24;98.33;103201.63;4995390;28;19914;-66
2023/05/20 02:10:36;;;;;;;;;;;;;;;8.31;98.47;103213.59;4995345;28;19914;-66
2023/05/20 02:13:01;;;;;;;;;;;;;;;8.36;98.33;103214.22;4995202;28;19914;-65
2023/05/20 02:15:27;;;;;;;;;;;;;;;8.46;98.36;103216.38;4994934;28;20013;-65
2023/05/20 02:17:52;;;;;;;;;;;;;;;8.54;98.46;103214.13;4995175;28;20333;-65
2023/05/20 02:20:18;;;;;;;;;;;;;;;8.60;97.65;103208.44;4994976;28;19973;-65
2023/05/20 02:22:43;;;;;;;;;;;;;;;8.65;97.28;103215.19;4994935;28;19960;-65
2023/05/20 02:25:09;;;;;;;;;;;;;;;8.71;97.38;103215.78;4994931;28;19921;-66
2023/05/20 02:27:35;;;;;;;;;;;;;;;8.75;97.81;103212.88;4994752;28;20257;-65
2023/05/20 02:30:00;;;;;;;;;;;;;;;8.80;97.54;103224.06;4994568;28;20012;-66
2023/05/20 02:32:27;;;;;;;;;;;;;;;8.84;97.72;103216.75;4993274;28;19914;-65
2023/05/20 02:34:56;;;;;;;;;;;;;;;8.89;97.18;103225.31;4994650;28;19918;-65
2023/05/20 02:37:21;;;;;;;;;;;;;;;8.94;96.66;103223.22;4994349;28;20354;-67
2023/05/20 02:39:47;;;;;;;;;;;;;;;8.97;96.84;103223.94;4994535;28;19913;-66
2023/05/20 02:42:12;;;;;;;;;;;;;;;9.03;97.24;103220.03;4994393;28;20389;-65
2023/05/20 02:44:37;;;;;;;;;;;;;;;9.08;97.43;103225.94;4994164;28;19913;-65
2023/05/20 02:47:03;;;;;;;;;;;;;;;9.08;98.52;103225.94;4994616;28;19953;-65
2023/05/20 02:49:28;;;;;;;;;;;;;;;9.13;98.59;103223.84;4994417;28;20021;-65
2023/05/20 02:51:54;;;;;;;;;;;;;;;9.19;98.16;103228.78;4993075;28;19936;-65
2023/05/20 02:54:20;;;;;;;;;;;;;;;9.28;98.29;103228.25;4994078;28;20374;-65
2023/05/20 02:56:45;;;;;;;;;;;;;;;9.41;97.84;103235.44;4994087;28;20338;-65
2023/05/20 02:59:11;;;;;;;;;;;;;;;9.76;96.86;103239.41;4994008;28;19913;-66
2023/05/20 03:01:36;;;;;;;;;;;;;;;10.92;97.16;103231.78;4993957;28;19913;-65
2023/05/20 03:04:02;;;;;;;;;;;;;;;12.65;92.70;103231.75;4993784;28;20302;-65
2023/05/20 03:06:29;;;;;;;;;;;;;;;14.38;83.76;103237.63;4993974;28;20357;-66
2023/05/20 03:08:54;;;;;;;;;;;;;;;15.59;76.01;103235.34;4993808;28;19913;-66
2023/05/20 03:11:20;;;;;;;;;;;;;;;16.26;73.60;103232.88;4993834;28;19914;-66
2023/05/20 03:13:46;;;;;;;;;;;;;;;16.80;70.40;103233.31;4992382;28;19914;-66
2023/05/20 03:16:11;;;;;;;;;;;;;;;17.21;68.39;103242.88;5008964;28;20353;-65
2023/05/20 03:18:37;;;;;;;;;;;;;;;17.36;67.33;103238.72;4993967;28;20266;-66
2023/05/20 03:21:08;;;;;;;;;;;;;;;17.25;63.16;103245.13;4993540;28;19918;-66
2023/05/20 03:23:34;;;;;;;;;;;;;;;16.91;65.32;103241.22;4992535;28;20274;-65
2023/05/20 03:25:59;;;;;;;;;;;;;;;16.74;66.56;103248.19;4993495;28;19921;-66
2023/05/20 03:28:25;;;;;;;;;;;;;;;16.47;67.69;103256.91;4993404;28;19914;-66
2023/05/20 03:30:50;;;;;;;;;;;;;;;15.99;66.21;103256.88;4993897;28;20227;-66
2023/05/20 03:33:16;;;;;;;;;;;;;;;15.02;68.06;103253.69;4993667;28;19920;-65
2023/05/20 03:35:41;;;;;;;;;;;;;;;14.14;71.78;103258.41;4993494;28;19914;-66
2023/05/20 03:38:06;;;;;;;;;;;;;;;13.40;76.09;103259.94;4993484;28;19914;-65
2023/05/20 03:40:32;;;;;;;;;;;;;;;13.02;77.72;103258.38;4993463;28;19914;-65
2023/05/20 03:42:57;;;;;;;;;;;;;;;12.63;81.50;103252.41;4993286;28;20255;-66
2023/05/20 03:45:22;;;;;;;;;;;;;;;12.35;83.16;103261.63;4993183;28;19922;-66
2023/05/20 03:47:48;;;;;;;;;;;;;;;12.30;82.69;103260.25;4993547;28;19917;-65
2023/05/20 03:50:13;;;;;;;;;;;;;;;12.39;82.14;103254.22;4993601;28;19921;-64
2023/05/20 03:52:39;;;;;;;;;;;;;;;12.81;81.08;103254.66;4993540;28;19914;-66
2023/05/20 03:55:05;;;;;;;;;;;;;;;13.79;77.80;103259.44;4992004;28;19953;-66
2023/05/20 03:57:31;;;;;;;;;;;;;;;14.67;73.30;103258.50;4992995;28;19956;-65
2023/05/20 03:59:56;;;;;;;;;;;;;;;15.07;68.17;103256.84;4993164;28;19920;-66
2023/05/20 04:02:22;;;;;;;;;;;;;;;15.48;68.71;103249.72;4993165;28;19913;-66
2023/05/20 04:04:47;;;;;;;;;;;;;;;15.91;65.99;103251.34;5008410;28;20359;-64
2023/05/20 04:07:12;;;;;;;;;;;;;;;16.16;65.49;103253.50;4993117;28;19918;-65
2023/05/20 04:09:38;;;;;;;;;;;;;;;16.55;63.58;103253.56;4992909;28;19914;-66
2023/05/20 04:12:04;;;;;;;;;;;;;;;16.89;61.96;103254.84;4993013;28;19914;-65
2023/05/20 04:14:30;;;;;;;;;;;;;;;17.38;59.81;103252.03;4995859;28;19918;-66
2023/05/20 04:16:55;;;;;;;;;;;;;;;18.09;55.14;103249.59;4999946;28;19949;-65
2023/05/20 04:19:22;;;;;;;;;;;;;;;18.62;55.65;103255.03;4999628;28;20243;-66
2023/05/20 04:21:48;;;;;;;;;;;;;;;19.18;49.06;103251.94;5000853;28;19914;-66
2023/05/20 04:24:13;;;;;;;;;;;;;;;19.25;50.09;103256.69;5000298;28;19973;-65
2023/05/20 04:26:39;;;;;;;;;;;;;;;19.19;49.46;103258.19;4999495;28;19914;-66
2023/05/20 04:29:04;;;;;;;;;;;;;;;19.24;48.97;103260.41;4999714;28;20045;-66
2023/05/20 04:31:30;;;;;;;;;;;;;;;19.25;49.09;103262.94;4999341;28;19914;-65
2023/05/20 04:33:56;;;;;;;;;;;;;;;19.24;48.54;103261.25;4999325;28;19921;-66
2023/05/20 04:36:27;;;;;;;;;;;;;;;19.12;48.35;103257.97;4999519;28;19921;-66
2023/05/20 04:38:53;;;;;;;;;;;;;;;19.19;48.36;103263.59;4999261;28;20012;-65
2023/05/20 04:41:18;;;;;;;;;;;;;;;19.04;47.91;103260.59;4999220;28;19913;-66
2023/05/20 04:43:44;;;;;;;;;;;;;;;18.90;48.20;103258.47;4999438;28;19914;-66
2023/05/20 04:46:10;;;;;;;;;;;;;;;18.98;48.32;103257.69;4998981;28;20286;-65
2023/05/20 04:48:35;;;;;;;;;;;;;;;19.04;48.19;103254.34;4998463;28;19953;-65
2023/05/20 04:51:01;;;;;;;;;;;;;;;18.97;47.34;103247.91;4998444;28;20266;-65
2023/05/20 04:53:26;;;;;;;;;;;;;;;19.00;47.82;103252.97;4998495;28;19913;-68
2023/05/20 04:55:55;;;;;;;;;;;;;;;18.88;46.82;103252.41;4998467;28;19913;-66
2023/05/20 04:58:23;;;;;;;;;;;;;;;18.65;48.09;103253.88;4998768;28;19914;-66
2023/05/20 05:00:48;;;;;;;;;;;;;;;18.74;48.09;103258.34;4998654;28;19917;-65
2023/05/20 05:03:13;;;;;;;;;;;;;;;18.31;48.64;103261.78;4999192;28;19917;-66
2023/05/20 05:05:39;;;;;;;;;;;;;;;18.03;49.93;103259.13;4999102;28;19914;-68
2023/05/20 05:08:05;;;;;;;;;;;;;;;17.78;50.63;103260.69;4999035;28;19985;-68
2023/05/20 05:10:31;;;;;;;;;;;;;;;17.49;51.26;103260.78;4999148;28;19921;-65
2023/05/20 05:12:57;;;;;;;;;;;;;;;16.97;52.42;103254.94;4999202;28;20359;-66
2023/05/20 05:15:22;;;;;;;;;;;;;;;16.26;54.64;103258.91;4998990;28;19918;-68
2023/05/20 05:17:48;;;;;;;;;;;;;;;15.60;55.70;103264.78;4998931;28;19940;-66
2023/05/20 05:20:13;;;;;;;;;;;;;;;15.10;59.33;103261.09;4998967;28;19979;-65
2023/05/20 05:22:40;;;;;;;;;;;;;;;14.64;61.21;103267.66;4998867;28;20044;-66
2023/05/20 05:25:06;;;;;;;;;;;;;;;14.33;63.43;103265.78;4998319;28;19918;-64
2023/05/20 05:27:31;;;;;;;;;;;;;;;14.17;63.79;103260.84;4996160;28;19914;-64
2023/05/20 05:29:56;;;;;;;;;;;;;;;14.06;64.40;103261.72;4995991;28;19921;-65
2023/05/20 05:32:22;;;;;;;;;;;;;;;13.92;65.61;103265.53;4995631;28;19949;-66
2023/05/20 05:34:47;;;;;;;;;;;;;;;13.73;65.71;103261.75;4978364;28;19921;-65
2023/05/20 05:37:12;;;;;;;;;;;;;;;13.70;65.38;103260.19;4994464;28;19918;-65
2023/05/20 05:39:38;;;;;;;;;;;;;;;13.71;65.81;103258.34;4976249;28;20068;-66
2023/05/20 05:42:03;;;;;;;;;;;;;;;13.67;65.86;103257.75;4995359;28;19924;-68
2023/05/20 05:44:29;;;;;;;;;;;;;;;13.69;66.39;103263.84;4995500;28;20412;-72
2023/05/20 05:46:54;;;;;;;;;;;;;;;13.66;65.54;103263.22;4995346;28;19961;-70
2023/05/20 05:49:20;;;;;;;;;;;;;;;13.69;66.45;103263.84;4995254;28;19921;-69
2023/05/20 05:51:45;;;;;;;;;;;;;;;13.77;65.37;103263.22;4977848;28;19953;-65
2023/05/20 05:54:10;;;;;;;;;;;;;;;13.82;64.52;103253.81;4994978;28;19914;-66
2023/05/20 05:56:36;;;;;;;;;;;;;;;13.82;65.04;103258.34;4997762;28;19926;-65
2023/05/20 05:59:01;;;;;;;;;;;;;;;13.89;65.07;103247.03;4998326;28;19972;-65
2023/05/20 06:01:26;;;;;;;;;;;;;;;13.94;65.46;103252.84;5003273;28;19971;-66
2023/05/20 06:03:52;;;;;;;;;;;;;;;13.99;66.04;103256.97;5003488;28;19960;-67
2023/05/20 06:06:17;;;;;;;;;;;;;;;14.05;66.82;103254.66;5003393;28;19914;-67
2023/05/20 06:08:42;;;;;;;;;;;;;;;14.05;66.67;103260.00;5003312;28;19972;-67
2023/05/20 06:11:08;;;;;;;;;;;;;;;14.02;67.43;103252.22;5009153;28;19914;-68
2023/05/20 06:13:34;;;;;;;;;;;;;;;14.07;68.73;103257.22;5003397;28;19918;-67
2023/05/20 06:16:00;;;;;;;;;;;;;;;14.07;69.61;103252.69;4997723;28;19924;-66
2023/05/20 06:18:25;;;;;;;;;;;;;;;14.11;68.28;103247.94;4995321;28;19914;-67
2023/05/20 06:20:54;;;;;;;;;;;;;;;14.08;68.67;103245.50;4994819;28;20117;-66
2023/05/20 06:23:20;;;;;;;;;;;;;;;14.05;69.31;103248.44;4994580;28;19914;-67
2023/05/20 06:25:45;;;;;;;;;;;;;;;14.05;69.43;103248.44;4994804;28;19918;-69
2023/05/20 06:28:11;;;;;;;;;;;;;;;14.03;69.44;103251.25;4994577;28;19914;-67
2023/05/20 06:30:37;;;;;;;;;;;;;;;14.05;69.37;103251.13;4994279;28;20277;-70
2023/05/20 06:33:02;;;;;;;;;;;;;;;14.06;73.12;103247.47;4994708;28;19922;-68
2023/05/20 06:35:27;;;;;;;;;;;;;;;14.12;71.91;103246.97;4994423;28;19960;-67
2023/05/20 06:37:54;;;;;;;;;;;;;;;14.09;70.55;103250.75;4993768;28;19917;-69
2023/05/20 06:40:19;;;;;;;;;;;;;;;14.15;70.56;103246.69;4994599;28;20045;-68
2023/05/20 06:42:45;;;;;;;;;;;;;;;14.22;69.92;103254.13;4994556;28;20369;-68
2023/05/20 06:45:11;;;;;;;;;;;;;;;14.27;70.23;103248.41;4994474;28;19972;-68
2023/05/20 06:47:36;;;;;;;;;;;;;;;14.36;69.65;103247.63;4994320;28;19924;-68
2023/05/20 06:50:02;;;;;;;;;;;;;;;14.43;69.49;103248.84;4994137;28;20012;-68
2023/05/20 06:52:30;;;;;;;;;;;;;;;14.50;69.19;103249.22;4993279;28;20332;-70
2023/05/20 06:54:55;;;;;;;;;;;;;;;14.57;69.29;103243.19;4994459;28;19921;-69
2023/05/20 06:57:21;;;;;;;;;;;;;;;14.54;68.58;103251.50;4994312;28;20350;-70
2023/05/20 06:59:46;;;;;;;;;;;;;;;14.59;68.53;103252.94;4994098;28;20373;-69
2023/05/20 07:02:12;;;;;;;;;;;;;;;14.66;69.43;103244.25;4994274;28;19920;-68
2023/05/20 07:04:37;;;;;;;;;;;;;;;14.78;68.81;103247.75;4976749;28;19913;-70
2023/05/20 07:07:02;;;;;;;;;;;;;;;14.88;68.24;103254.03;4993754;28;20282;-68
2023/05/20 07:09:28;;;;;;;;;;;;;;;14.86;67.53;103250.63;4993769;28;19914;-71
2023/05/20 07:11:53;;;;;;;;;;;;;;;14.91;68.27;103248.38;4994121;28;20020;-68
2023/05/20 07:14:18;;;;;;;;;;;;;;;14.97;68.38;103247.00;4993909;28;19970;-69
2023/05/20 07:16:44;;;;;;;;;;;;;;;15.02;67.01;103245.63;4976592;28;19913;-70
2023/05/20 07:19:09;;;;;;;;;;;;;;;15.09;67.33;103249.50;4993727;28;19957;-69
2023/05/20 07:21:35;;;;;;;;;;;;;;;15.22;67.34;103251.97;4993649;28;20468;-69
2023/05/20 07:24:00;;;;;;;;;;;;;;;15.29;66.73;103241.53;4994024;28;19944;-67
2023/05/20 07:26:25;;;;;;;;;;;;;;;15.27;66.82;103249.75;4993780;28;19924;-68
2023/05/20 07:28:51;;;;;;;;;;;;;;;15.23;66.41;103247.47;4976288;28;19914;-70
2023/05/20 07:31:16;;;;;;;;;;;;;;;15.22;66.80;103246.59;4993645;28;20020;-68
2023/05/20 07:33:41;;;;;;;;;;;;;;;15.22;67.12;103243.91;4993479;28;19960;-73
2023/05/20 07:36:07;;;;;;;;;;;;;;;15.28;67.22;103243.38;4993313;28;19917;-68
2023/05/20 07:38:32;;;;;;;;;;;;;;;15.32;65.91;103238.59;4993456;28;20052;-68
2023/05/20 07:40:57;;;;;;;;;;;;;;;15.33;65.19;103241.19;4993217;28;19965;-68
2023/05/20 07:43:23;;;;;;;;;;;;;;;15.31;65.66;103237.75;4993595;28;19917;-69
2023/05/20 07:45:49;;;;;;;;;;;;;;;15.39;65.91;103231.72;4993363;28;19918;-69
2023/05/20 07:48:15;;;;;;;;;;;;;;;15.45;67.46;103236.56;4993099;28;19922;-67
2023/05/20 07:50:40;;;;;;;;;;;;;;;15.49;66.24;103249.56;4992683;28;19920;-69
2023/05/20 07:53:05;;;;;;;;;;;;;;;15.40;66.15;103241.47;4992941;28;19913;-68
2023/05/20 07:55:34;;;;;;;;;;;;;;;15.27;66.04;103238.16;4993113;28;19914;-69
2023/05/20 07:58:00;;;;;;;;;;;;;;;15.29;66.27;103236.19;4993081;28;19914;-69
2023/05/20 08:00:25;;;;;;;;;;;;;;;15.33;66.87;103234.97;4993395;28;20377;-68
2023/05/20 08:02:51;;;;;;;;;;;;;;;15.33;66.05;103229.59;4993179;28;19914;-70
2023/05/20 08:05:16;;;;;;;;;;;;;;;15.41;65.34;103237.81;4994207;28;19914;-68
2023/05/20 08:07:41;;;;;;;;;;;;;;;15.38;64.95;103241.63;4993220;28;19914;-70
2023/05/20 08:10:07;;;;;;;;;;;;;;;15.25;65.47;103221.31;4992830;28;19914;-68
2023/05/20 08:12:32;;;;;;;;;;;;;;;15.31;65.22;103234.22;4993262;28;19913;-69
2023/05/20 08:14:58;;;;;;;;;;;;;;;15.41;65.07;103229.75;4993410;28;19914;-69
2023/05/20 08:17:23;;;;;;;;;;;;;;;15.48;64.81;103225.53;4993104;28;20341;-69
2023/05/20 08:19:48;;;;;;;;;;;;;;;15.56;64.69;103225.72;4975346;28;20382;-68
2023/05/20 08:22:14;;;;;;;;;;;;;;;15.60;63.60;103229.84;4992766;28;20388;-68
2023/05/20 08:24:40;;;;;;;;;;;;;;;15.60;62.96;103219.09;4993045;28;19914;-68
2023/05/20 08:27:05;;;;;;;;;;;;;;;15.56;62.54;103214.13;4992723;28;20301;-68
2023/05/20 08:29:30;;;;;;;;;;;;;;;15.54;62.98;103213.41;4993026;28;19914;-67
2023/05/20 08:31:56;;;;;;;;;;;;;;;15.53;62.66;103212.56;4993105;28;20320;-68
2023/05/20 08:34:21;;;;;;;;;;;;;;;15.56;62.90;103212.28;4992662;28;19914;-68
2023/05/20 08:36:46;;;;;;;;;;;;;;;15.59;62.98;103211.19;4992616;28;19964;-70
2023/05/20 08:39:12;;;;;;;;;;;;;;;15.66;62.80;103215.06;4993014;28;20318;-68
2023/05/20 08:41:38;;;;;;;;;;;;;;;15.74;62.04;103210.69;4992867;28;19914;-70
2023/05/20 08:44:04;;;;;;;;;;;;;;;15.83;61.82;103213.53;4992981;28;19925;-69
2023/05/20 08:46:30;;;;;;;;;;;;;;;15.93;61.37;103211.72;4993000;28;19918;-69
2023/05/20 08:48:55;;;;;;;;;;;;;;;16.03;60.46;103217.97;4992732;28;19983;-69
2023/05/20 08:51:22;;;;;;;;;;;;;;;16.05;59.72;103214.16;4992469;28;20383;-69
2023/05/20 08:53:48;;;;;;;;;;;;;;;16.16;59.73;103210.47;4992754;28;19913;-68
2023/05/20 08:56:15;;;;;;;;;;;;;;;16.21;59.58;103216.31;4992184;28;20080;-68
2023/05/20 08:58:41;;;;;;;;;;;;;;;16.19;57.60;103214.72;4992794;28;19921;-68
2023/05/20 09:01:07;;;;;;;;;;;;;;;16.21;58.43;103216.31;4994426;28;19914;-67
2023/05/20 09:03:32;;;;;;;;;;;;;;;16.19;57.93;103212.91;4996060;28;19936;-68
2023/05/20 09:06:05;;;;;;;;;;;;;;;16.32;57.78;103215.31;4996109;28;19930;-70
2023/05/20 09:08:30;;;;;;;;;;;;;;;16.40;56.14;103219.00;4978876;28;20000;-68
2023/05/20 09:10:56;;;;;;;;;;;;;;;16.43;55.42;103217.84;4995901;28;19956;-69
2023/05/20 09:13:22;;;;;;;;;;;;;;;16.36;55.87;103216.72;4996260;28;19968;-68
2023/05/20 09:15:48;;;;;;;;;;;;;;;16.38;56.76;103210.22;4996070;28;20354;-70
2023/05/20 09:18:13;;;;;;;;;;;;;;;16.40;55.38;103204.69;4995853;28;20007;-68
2023/05/20 09:20:39;;;;;;;;;;;;;;;16.41;56.71;103203.69;4995727;28;19944;-70
2023/05/20 09:23:06;;;;;;;;;;;;;;;16.30;54.50;103199.31;4996098;28;19914;-68
2023/05/20 09:25:32;;;;;;;;;;;;;;;16.25;54.85;103209.66;4995889;28;20358;-68
2023/05/20 09:27:57;;;;;;;;;;;;;;;16.29;55.04;103204.84;4995824;28;19922;-68
2023/05/20 09:30:23;;;;;;;;;;;;;;;16.36;54.89;103188.00;4996123;28;19971;-68
2023/05/20 09:32:52;;;;;;;;;;;;;;;16.46;54.13;103187.13;4995558;28;20005;-68
2023/05/20 09:35:18;;;;;;;;;;;;;;;16.50;52.51;103177.81;4995723;28;19960;-68
2023/05/20 09:37:45;;;;;;;;;;;;;;;16.47;51.44;103186.13;4995543;28;19964;-68
2023/05/20 09:40:12;;;;;;;;;;;;;;;16.54;52.23;103182.75;4995578;28;19921;-68
2023/05/20 09:43:03;;;;;;;;;;;;;;;16.62;51.46;103190.09;4995572;28;19928;-68
2023/05/20 09:45:30;;;;;;;;;;;;;;;16.67;50.42;103191.41;4993290;28;20366;-69
2023/05/20 09:47:58;;;;;;;;;;;;;;;16.80;49.17;103191.13;4995635;28;19941;-68
2023/05/20 09:50:24;;;;;;;;;;;;;;;16.96;48.60;103194.03;4995224;28;19925;-69
2023/05/20 09:52:51;;;;;;;;;;;;;;;17.09;48.47;103182.13;4995563;28;19914;-68
2023/05/20 09:55:17;;;;;;;;;;;;;;;17.23;47.06;103190.56;4995425;28;20012;-68
2023/05/20 09:57:43;;;;;;;;;;;;;;;17.29;47.89;103189.09;4995033;28;19921;-70
2023/05/20 10:00:09;;;;;;;;;;;;;;;17.39;47.50;103200.72;4995214;28;19913;-67
2023/05/20 10:02:35;;;;;;;;;;;;;;;17.58;47.40;103191.66;4995079;28;19914;-68
2023/05/20 10:05:04;;;;;;;;;;;;;;;17.73;47.94;103186.66;4995044;28;20385;-68
2023/05/20 10:07:36;;;;;;;;;;;;;;;18.00;48.09;103183.94;4995258;28;19913;-69
2023/05/20 10:10:02;;;;;;;;;;;;;;;18.11;45.77;103183.72;4993890;28;20263;-66
2023/05/20 10:12:37;;;;;;;;;;;;;;;18.01;45.66;103185.63;4993972;28;19961;-67
2023/05/20 10:15:06;;;;;;;;;;;;;;;18.02;46.01;103175.69;4994929;28;19952;-68
2023/05/20 10:17:50;;;;;;;;;;;;;;;17.95;45.62;103175.47;4994999;28;19920;-69
2023/05/20 10:20:15;;;;;;;;;;;;;;;17.99;45.00;103176.00;4994951;28;19917;-67
2023/05/20 10:22:40;;;;;;;;;;;;;;;18.08;43.70;103175.06;4994897;28;19914;-69
2023/05/20 10:25:08;;;;;;;;;;;;;;;18.22;44.22;103182.66;4994443;28;19922;-69
2023/05/20 10:27:46;;;;;;;;;;;;;;;18.33;43.72;103173.47;4994687;28;19917;-70
2023/05/20 10:30:18;;;;;;;;;;;;;;;18.21;42.97;103171.00;4994960;28;19918;-69
2023/05/20 10:32:55;;;;;;;;;;;;;;;18.05;44.23;103176.22;4994821;28;19953;-69
2023/05/20 10:35:26;;;;;;;;;;;;;;;17.85;43.64;103169.28;4994576;28;20521;-68
2023/05/20 10:37:53;;;;;;;;;;;;;;;17.56;44.52;103177.50;4994750;28;20350;-70
2023/05/20 10:40:19;;;;;;;;;;;;;;;17.34;46.35;103165.25;4977298;28;19917;-70
2023/05/20 10:42:46;;;;;;;;;;;;;;;17.23;46.05;103166.31;4994671;28;19920;-68
2023/05/20 10:45:28;;;;;;;;;;;;;;;17.24;46.05;103164.47;4994319;28;19922;-69
2023/05/20 10:47:55;;;;;;;;;;;;;;;17.39;46.24;103168.38;4994352;28;19929;-67
2023/05/20 10:50:37;;;;;;;;;;;;;;;17.56;44.98;103156.78;4994732;28;19914;-68
2023/05/20 10:53:06;;;;;;;;;;;;;;;17.72;44.40;103152.63;4994575;28;19913;-69
2023/05/20 10:55:36;;;;;;;;;;;;;;;17.87;45.51;103156.50;4994209;28;19914;-70
2023/05/20 10:58:01;;;;;;;;;;;;;;;17.89;43.86;103152.63;4994259;28;19914;-68
2023/05/20 11:00:27;;;;;;;;;;;;;;;17.97;44.91;103151.91;4994174;28;19914;-68
2023/05/20 11:02:53;;;;;;;;;;;;;;;18.06;44.30;103153.66;4993992;28;19921;-69
2023/05/20 11:05:19;;;;;;;;;;;;;;;18.08;43.48;103159.75;4994041;28;19914;-67
2023/05/20 11:07:45;;;;;;;;;;;;;;;18.15;42.92;103155.44;4994009;28;19939;-68
2023/05/20 11:10:10;;;;;;;;;;;;;;;18.40;43.26;103152.94;4993861;28;20016;-69
2023/05/20 11:12:35;;;;;;;;;;;;;;;18.53;41.78;103148.00;4993968;28;19920;-68
2023/05/20 11:15:01;;;;;;;;;;;;;;;18.64;43.13;103145.06;4993655;28;20028;-69
2023/05/20 11:17:29;;;;;;;;;;;;;;;18.84;43.33;103134.94;4993814;28;19960;-72
2023/05/20 11:19:55;;;;;;;;;;;;;;;19.06;43.45;103133.50;4993946;28;19913;-72
2023/05/20 11:22:20;;;;;;;;;;;;;;;19.30;42.60;103147.13;4993967;28;20362;-69
2023/05/20 11:24:46;;;;;;;;;;;;;;;19.54;42.93;103141.00;4993845;28;20254;-69
2023/05/20 11:27:11;;;;;;;;;;;;;;;19.78;41.27;103140.22;4993629;28;20370;-69
2023/05/20 11:29:37;;;;;;;;;;;;;;;19.86;41.68;103137.53;4993650;28;19918;-69
2023/05/20 11:32:03;;;;;;;;;;;;;;;20.02;41.43;103136.72;4993619;28;19913;-69
2023/05/20 11:34:35;;;;;;;;;;;;;;;20.02;41.25;103134.88;4994215;28;20016;-68
2023/05/20 11:37:01;;;;;;;;;;;;;;;19.78;40.99;103134.81;4993448;28;19914;-69
2023/05/20 11:39:29;;;;;;;;;;;;;;;19.85;42.31;103133.13;4975911;28;20294;-68
2023/05/20 11:41:56;;;;;;;;;;;;;;;19.99;42.30;103132.50;4993292;28;19968;-69
2023/05/20 11:44:21;;;;;;;;;;;;;;;20.16;41.49;103127.94;4993258;28;19961;-67
2023/05/20 11:46:47;;;;;;;;;;;;;;;20.19;40.82;103126.75;4993900;28;19961;-68
2023/05/20 11:49:13;;;;;;;;;;;;;;;20.04;40.75;103118.47;4976207;28;19940;-68
2023/05/20 11:51:38;;;;;;;;;;;;;;;20.05;40.78;103121.00;4976322;28;19913;-70
2023/05/20 11:54:04;;;;;;;;;;;;;;;20.08;40.99;103125.22;4976131;28;19922;-68
2023/05/20 11:56:32;;;;;;;;;;;;;;;20.11;40.94;103114.91;4993242;28;19984;-70
2023/05/20 11:58:58;;;;;;;;;;;;;;;20.16;41.00;103113.56;4993749;28;20011;-70
2023/05/20 12:01:24;;;;;;;;;;;;;;;20.09;41.06;103108.81;4993382;28;19922;-68
2023/05/20 12:03:49;;;;;;;;;;;;;;;19.94;40.63;103105.09;4993456;28;19914;-69
2023/05/20 12:06:15;;;;;;;;;;;;;;;19.52;41.01;103105.16;4993174;28;19917;-70
2023/05/20 12:08:40;;;;;;;;;;;;;;;19.14;41.84;103104.69;4993166;28;19914;-68
2023/05/20 12:11:06;;;;;;;;;;;;;;;18.76;42.02;103089.81;4993147;28;19920;-70
2023/05/20 12:13:31;;;;;;;;;;;;;;;18.57;41.92;103093.56;4993310;28;19960;-68
2023/05/20 12:15:57;;;;;;;;;;;;;;;18.51;41.83;103091.50;4976444;28;19921;-68
2023/05/20 12:18:22;;;;;;;;;;;;;;;18.58;42.71;103097.94;4993178;28;19949;-68
2023/05/20 12:20:47;;;;;;;;;;;;;;;18.82;41.94;103097.28;4993056;28;19921;-71
2023/05/20 12:23:13;;;;;;;;;;;;;;;18.87;40.41;103086.00;4993037;28;20381;-68
2023/05/20 12:25:38;;;;;;;;;;;;;;;19.06;40.68;103080.34;4992851;28;19913;-68
2023/05/20 12:28:03;;;;;;;;;;;;;;;19.34;41.05;103078.25;4993039;28;19918;-71
2023/05/20 12:30:29;;;;;;;;;;;;;;;19.55;40.44;103076.97;4993259;28;19925;-72
2023/05/20 12:32:54;;;;;;;;;;;;;;;19.58;39.93;103076.66;4992918;28;19920;-69